createdAt,value
2023-05-14T05:30:56.519Z,100197.29
2023-05-14T05:35:02.739Z,100195.24
2023-05-14T06:50:44.293Z,100108.52
2023-05-14T07:48:28.115Z,99938.13
2023-05-14T07:50:57.386Z,99944.24
2023-05-14T07:53:24.346Z,99934.64
2023-05-14T07:55:51.304Z,99938.83
2023-05-14T07:58:17.911Z,99940.52
2023-05-14T08:00:45.968Z,99938.66
2023-05-14T08:03:15.092Z,99934.08
2023-05-14T08:05:41.765Z,99939.48
2023-05-14T08:08:15.438Z,99948.73
2023-05-14T08:10:44.443Z,99942.02
2023-05-14T08:13:10.917Z,99942.80
2023-05-14T08:15:39.930Z,99945.77
2023-05-14T08:18:06.379Z,99943.10
2023-05-14T08:20:36.047Z,99939.42
2023-05-14T08:23:03.355Z,99933.97
2023-05-14T08:25:30.270Z,99935.38
2023-05-14T08:48:10.558Z,99899.81
2023-05-14T08:50:44.546Z,99890.80
2023-05-14T08:53:21.164Z,99892.84
2023-05-14T08:56:49.870Z,99887.93
2023-05-14T08:59:20.466Z,99893.34
2023-05-14T09:10:04.066Z,99869.77
2023-05-14T09:12:30.901Z,99876.73
2023-05-14T09:14:57.540Z,99866.44
2023-05-14T09:17:28.347Z,99861.03
2023-05-14T09:19:55.449Z,99856.23
2023-05-14T09:22:24.478Z,99851.52
2023-05-14T09:25:04.887Z,99852.23
2023-05-14T09:27:32.713Z,99847.08
2023-05-14T09:30:15.063Z,99841.23
2023-05-14T09:32:43.440Z,99840.57
2023-05-14T09:35:11.147Z,99840.14
2023-05-14T09:37:42.827Z,99840.77
2023-05-14T09:40:11.329Z,99831.91
2023-05-14T09:42:40.125Z,99826.64
2023-05-14T09:45:11.083Z,99827.25
2023-05-14T09:47:38.936Z,99819.60
2023-05-14T09:50:06.812Z,99815.70
2023-05-14T09:52:34.182Z,99816.89
2023-05-14T09:55:01.398Z,99814.93
2023-05-14T09:57:35.969Z,99810.20
2023-05-14T10:00:06.172Z,99808.93
2023-05-14T10:02:38.167Z,99804.41
2023-05-14T10:05:06.272Z,99797.50
2023-05-14T10:08:00.407Z,99794.15
2023-05-14T10:10:30.112Z,99801.02
2023-05-14T10:13:03.569Z,99793.97
2023-05-14T10:15:36.624Z,99791.23
2023-05-14T10:18:09.014Z,99793.15
2023-05-14T10:20:38.243Z,99790.66
2023-05-14T10:23:07.489Z,99784.02
2023-05-14T10:25:36.921Z,99783.59
2023-05-14T10:28:05.492Z,99769.45
2023-05-14T10:30:34.349Z,99771.95
2023-05-14T10:33:08.676Z,99765.36
2023-05-14T10:35:51.930Z,99768.20
2023-05-14T10:38:28.940Z,99762.89
2023-05-14T10:40:58.242Z,99766.29
2023-05-14T10:43:30.222Z,99763.38
2023-05-14T10:45:59.515Z,99759.05
2023-05-14T10:48:26.838Z,99756.02
2023-05-14T10:50:55.389Z,99753.33
2023-05-14T10:53:36.561Z,99744.38
2023-05-14T10:56:11.850Z,99733.06
2023-05-14T10:58:41.495Z,99733.77
2023-05-14T11:01:09.662Z,99737.15
2023-05-14T11:03:45.051Z,99734.21
2023-05-14T11:06:14.596Z,99735.25
2023-05-14T11:08:42.050Z,99734.66
2023-05-14T11:11:09.753Z,99732.52
2023-05-14T11:13:37.400Z,99733.15
2023-05-14T11:16:21.575Z,99732.11
2023-05-14T11:19:01.676Z,99724.79
2023-05-14T11:21:29.827Z,99721.94
2023-05-14T11:23:56.529Z,99720.25
2023-05-14T11:26:27.894Z,99719.29
2023-05-14T11:28:55.092Z,99718.10
2023-05-14T11:31:23.575Z,99719.02
2023-05-14T11:33:52.140Z,99725.09
2023-05-14T11:36:19.320Z,99720.55
2023-05-14T11:38:51.850Z,99714.56
2023-05-14T11:41:20.817Z,99705.91
2023-05-14T11:43:47.748Z,99702.80
2023-05-14T11:46:18.204Z,99704.92
2023-05-14T11:48:45.367Z,99698.32
2023-05-14T11:51:14.441Z,99696.58
2023-05-14T11:53:41.605Z,99699.06
2023-05-14T11:56:09.763Z,99702.13
2023-05-14T11:58:41.019Z,99696.48
2023-05-14T12:01:13.346Z,99696.30
2023-05-14T12:03:40.200Z,99701.27
2023-05-14T12:06:07.624Z,99701.55
2023-05-14T12:08:34.656Z,99702.89
2023-05-14T12:11:01.395Z,99701.21
2023-05-14T12:13:29.564Z,99699.13
2023-05-14T12:15:58.666Z,99693.69
2023-05-14T12:18:27.068Z,99692.63
2023-05-14T12:20:56.514Z,99692.70
2023-05-14T12:23:28.364Z,99687.91
2023-05-14T12:25:55.374Z,99681.73
2023-05-14T12:28:22.635Z,99675.04
2023-05-14T12:30:55.803Z,99681.09
2023-05-14T12:33:26.272Z,99673.33
2023-05-14T12:35:53.597Z,99671.64
2023-05-14T12:38:20.099Z,99666.72
2023-05-14T12:40:46.996Z,99660.77
2023-05-14T12:43:13.857Z,99662.46
2023-05-14T12:45:40.784Z,99659.88
2023-05-14T12:48:09.656Z,99656.60
2023-05-14T12:50:39.034Z,99656.95
2023-05-14T12:53:06.018Z,99655.67
2023-05-14T12:55:33.722Z,99652.52
2023-05-14T12:58:03.083Z,99647.44
2023-05-14T13:00:29.727Z,99645.93
2023-05-14T13:02:58.389Z,99651.52
2023-05-14T13:05:27.468Z,99645.59
2023-05-14T13:07:54.395Z,99641.55
2023-05-14T14:22:29.699Z,99552.19
2023-05-14T14:24:56.221Z,99550.75
2023-05-14T14:27:30.480Z,99565.85
2023-05-14T14:29:59.198Z,99561.42
2023-05-14T14:32:28.832Z,99562.84
2023-05-14T14:34:55.353Z,99550.27
2023-05-14T14:37:27.126Z,99547.46
2023-05-14T14:39:53.600Z,99542.70
2023-05-14T14:42:22.276Z,99543.98
2023-05-14T14:44:50.735Z,99540.71
2023-05-14T14:47:19.869Z,99535.52
2023-05-14T14:49:51.133Z,99538.15
2023-05-14T14:52:20.276Z,99531.83
2023-05-14T14:54:46.632Z,99537.04
2023-05-14T14:57:13.468Z,99529.79
2023-05-14T14:59:40.695Z,99532.13
2023-05-14T15:02:09.259Z,99525.54
2023-05-14T15:04:37.274Z,99522.41
2023-05-14T15:07:06.725Z,99520.53
2023-05-14T15:09:38.577Z,99512.12
2023-05-14T15:12:07.593Z,99508.84
2023-05-14T15:14:37.070Z,99500.66
2023-05-14T15:17:05.558Z,99497.21
2023-05-14T15:19:35.885Z,99499.98
2023-05-14T15:22:15.499Z,99501.61
2023-05-14T15:24:42.868Z,99499.48
2023-05-14T15:27:12.090Z,99502.77
2023-05-14T15:29:38.612Z,99494.15
2023-05-14T15:32:06.310Z,99488.09
2023-05-14T15:34:33.245Z,99492.11
2023-05-14T15:37:00.171Z,99494.70
2023-05-14T15:39:30.879Z,99491.02
2023-05-14T15:41:57.263Z,99492.26
2023-05-14T15:44:23.858Z,99486.55
2023-05-14T15:46:50.713Z,99484.73
2023-05-14T15:49:25.152Z,99474.25
2023-05-14T15:51:51.598Z,99477.10
2023-05-14T15:54:18.322Z,99478.70
2023-05-14T15:56:46.382Z,99472.31
2023-05-14T15:59:14.080Z,99466.34
2023-05-14T16:01:42.743Z,99468.52
2023-05-14T16:04:12.430Z,99463.53
2023-05-14T16:06:41.542Z,99455.90
2023-05-14T16:09:08.963Z,99454.33
2023-05-14T16:11:36.178Z,99446.81
2023-05-14T16:14:03.327Z,99444.44
2023-05-14T16:16:29.912Z,99442.61
2023-05-14T16:18:59.737Z,99439.05
2023-05-14T16:21:27.059Z,99441.94
2023-05-14T16:23:54.016Z,99439.16
2023-05-14T16:26:32.279Z,99440.21
2023-05-14T16:28:59.714Z,99435.54
2023-05-14T16:32:10.280Z,99428.23
2023-05-14T16:35:21.589Z,99428.56
2023-05-14T16:37:48.735Z,99437.25
2023-05-14T16:40:15.670Z,99440.96
2023-05-14T16:42:42.199Z,99441.91
2023-05-14T16:45:11.518Z,99441.42
2023-05-14T16:47:42.008Z,99438.96
2023-05-14T16:50:11.167Z,99437.41
2023-05-14T16:52:40.039Z,99437.63
2023-05-14T16:55:09.203Z,99434.47
2023-05-14T16:57:38.134Z,99433.13
2023-05-14T17:00:05.950Z,99433.86
2023-05-14T17:02:39.849Z,99434.23
2023-05-14T17:05:08.676Z,99433.02
2023-05-14T17:07:37.507Z,99430.45
2023-05-14T17:10:09.365Z,99431.57
2023-05-14T17:12:35.904Z,99431.76
2023-05-14T17:15:06.570Z,99434.62
2023-05-14T17:17:33.914Z,99435.95
2023-05-14T17:20:04.939Z,99433.73
2023-05-14T17:22:31.859Z,99434.79
2023-05-14T18:06:02.720Z,99435.68
2023-05-14T18:08:31.086Z,99433.92
2023-05-14T18:11:00.251Z,99434.73
2023-05-14T19:00:32.056Z,99438.98
2023-05-14T19:03:21.735Z,99440.33
2023-05-14T19:05:51.178Z,99442.25
2023-05-14T19:08:35.415Z,99440.58
2023-05-14T19:11:23.355Z,99440.86
2023-05-14T19:14:06.249Z,99444.11
2023-05-14T19:16:34.776Z,99443.09
2023-05-14T19:59:48.613Z,99422.55
2023-05-14T20:02:17.592Z,99417.39
2023-05-14T20:04:49.964Z,99417.73
2023-05-14T20:07:17.201Z,99415.62
2023-05-14T20:09:47.683Z,99407.98
2023-05-14T20:12:17.328Z,99404.30
2023-05-14T20:35:01.755Z,99378.45
2023-05-14T20:37:34.369Z,99375.59
2023-05-14T20:40:02.456Z,99373.00
2023-05-14T20:42:29.600Z,99367.86
2023-05-14T20:44:56.531Z,99368.85
2023-05-14T20:56:52.321Z,99357.98
2023-05-14T20:59:39.388Z,99354.41
